Time;durP1;ratioP1;P1;durP2;ratioP2;P2;SDS_P1;SDS_P2;PMS_P1;PMS_P2;Temp;Humidity;BMP_temperature;BMP_pressure;BME280_temperature;BME280_humidity;BME280_pressure;Samples;Min_cycle;Max_cycle;Signal;HPM_P1;HPM_P2
2023/07/21 00:00:15;;;;;;;10.30;2.57;;;14.70;99.90;;;;;;4991978;28;20488;-58
2023/07/21 00:02:41;;;;;;;2.73;2.10;;;14.70;99.90;;;;;;4992101;28;20974;-55
2023/07/21 00:05:09;;;;;;;4.80;2.00;;;14.70;99.90;;;;;;4991847;28;20427;-56
2023/07/21 00:07:35;;;;;;;5.10;2.90;;;14.70;99.90;;;;;;4992053;28;20432;-55
2023/07/21 00:10:07;;;;;;;24.87;15.50;;;14.70;99.90;;;;;;4992163;28;20426;-57
2023/07/21 00:12:51;;;;;;;6.47;3.80;;;14.70;99.90;;;;;;4991869;28;20876;-56
2023/07/21 00:15:18;;;;;;;6.97;3.10;;;14.70;99.90;;;;;;4991938;28;20898;-54
2023/07/21 00:17:48;;;;;;;6.60;2.60;;;14.70;99.90;;;;;;4991849;28;20415;-56
2023/07/21 00:20:19;;;;;;;4.73;2.70;;;14.70;99.90;;;;;;4992088;28;20805;-55
2023/07/21 00:22:45;;;;;;;9.43;2.60;;;14.70;99.90;;;;;;4991593;28;20899;-56
2023/07/21 00:25:11;;;;;;;4.83;2.60;;;14.70;99.90;;;;;;4991597;28;20439;-56
2023/07/21 00:27:41;;;;;;;5.60;2.50;;;14.60;1.00;;;;;;4991802;28;20427;-56
2023/07/21 00:30:07;;;;;;;7.70;2.40;;;14.60;1.00;;;;;;4991603;28;20923;-56
2023/07/21 00:32:34;;;;;;;4.20;2.23;;;14.50;1.00;;;;;;4991366;28;20462;-56
2023/07/21 00:35:01;;;;;;;6.20;2.20;;;14.40;1.00;;;;;;4991589;28;20474;-59
2023/07/21 00:37:26;;;;;;;5.47;2.47;;;14.30;1.00;;;;;;4990789;28;20428;-57
2023/07/21 00:39:52;;;;;;;4.90;3.23;;;14.30;1.00;;;;;;4991328;28;20434;-55
2023/07/21 00:42:17;;;;;;;3.80;2.20;;;14.20;1.00;;;;;;4991473;28;20188;-57
2023/07/21 00:44:44;;;;;;;4.53;2.10;;;14.10;99.90;;;;;;4991225;28;20184;-56
2023/07/21 00:47:10;;;;;;;6.07;2.03;;;14.00;99.90;;;;;;4991473;28;20670;-57
2023/07/21 00:49:37;;;;;;;4.70;2.00;;;13.90;99.90;;;;;;4991142;28;20920;-57
2023/07/21 00:52:03;;;;;;;3.23;2.07;;;13.80;1.00;;;;;;4991277;28;20541;-56
2023/07/21 00:54:29;;;;;;;2.57;2.37;;;13.70;1.00;;;;;;4991117;28;20856;-55
2023/07/21 00:56:54;;;;;;;3.83;1.93;;;13.70;99.90;;;;;;4991424;28;20406;-56
2023/07/21 00:59:20;;;;;;;5.07;2.20;;;13.60;99.90;;;;;;4991387;28;20476;-56
2023/07/21 01:01:46;;;;;;;4.40;2.57;;;13.60;99.90;;;;;;4991422;28;20183;-56
2023/07/21 01:04:11;;;;;;;3.80;2.00;;;13.50;99.90;;;;;;4991325;28;20192;-56
2023/07/21 01:06:38;;;;;;;3.07;2.23;;;13.40;1.00;;;;;;4991079;28;20201;-56
2023/07/21 01:09:06;;;;;;;5.10;2.40;;;13.30;1.00;;;;;;4990953;28;20710;-56
2023/07/21 01:11:34;;;;;;;4.47;2.30;;;13.30;14.40;;;;;;4990764;28;20917;-56
2023/07/21 01:14:04;;;;;;;6.57;2.53;;;13.20;99.90;;;;;;4991121;28;20417;-57
2023/07/21 01:16:33;;;;;;;5.80;2.57;;;13.20;1.00;;;;;;4991222;28;20422;-56
2023/07/21 01:19:01;;;;;;;5.87;2.33;;;13.10;99.90;;;;;;4990752;28;20941;-57
2023/07/21 01:21:45;;;;;;;3.70;2.40;;;13.10;1.00;;;;;;4991077;28;20414;-56
2023/07/21 01:24:46;;;;;;;6.50;2.60;;;13.00;1.00;;;;;;4990849;28;20421;-57
2023/07/21 01:27:13;;;;;;;2.60;2.40;;;12.90;1.00;;;;;;4990880;28;20407;-55
2023/07/21 01:29:42;;;;;;;3.20;2.40;;;12.90;1.00;;;;;;4991019;28;20739;-56
2023/07/21 01:32:10;;;;;;;5.33;2.10;;;12.90;1.00;;;;;;4990699;28;20563;-56
2023/07/21 01:34:37;;;;;;;4.37;2.40;;;12.80;35.00;;;;;;4990541;28;20837;-55
2023/07/21 01:37:04;;;;;;;3.00;2.33;;;12.80;99.90;;;;;;4990792;28;20446;-56
2023/07/21 01:39:34;;;;;;;3.57;2.00;;;12.80;99.90;;;;;;4990628;28;20448;-57
2023/07/21 01:42:00;;;;;;;4.50;2.70;;;12.70;1.00;;;;;;4990839;28;20417;-55
2023/07/21 01:44:26;;;;;;;7.03;2.37;;;12.70;12.90;;;;;;4990615;28;20972;-56
2023/07/21 01:46:54;;;;;;;5.10;2.70;;;12.60;99.90;;;;;;4990742;28;20482;-57
2023/07/21 01:49:20;;;;;;;5.93;2.67;;;12.60;99.90;;;;;;4989483;28;20422;-56
2023/07/21 01:51:48;;;;;;;3.63;2.30;;;12.50;99.90;;;;;;4990479;28;20568;-57
2023/07/21 01:54:36;;;;;;;3.73;2.33;;;12.50;1.00;;;;;;4990279;28;20186;-58
2023/07/21 01:57:08;;;;;;;6.03;2.47;;;12.40;99.90;;;;;;4990438;28;20445;-56
2023/07/21 01:59:34;;;;;;;3.90;2.60;;;12.40;1.00;;;;;;4990382;28;20415;-56
2023/07/21 02:02:00;;;;;;;4.10;2.43;;;12.40;89.20;;;;;;4990166;28;20441;-56
2023/07/21 02:04:26;;;;;;;3.43;2.30;;;12.30;1.00;;;;;;4990037;28;20792;-56
2023/07/21 02:06:52;;;;;;;5.77;2.90;;;12.20;99.90;;;;;;4990419;28;20514;-56
2023/07/21 02:09:19;;;;;;;2.90;2.37;;;12.20;1.00;;;;;;4990434;28;20269;-55
2023/07/21 02:11:45;;;;;;;5.00;2.97;;;12.10;99.90;;;;;;4990467;28;20197;-55
2023/07/21 02:14:13;;;;;;;5.73;2.83;;;12.10;99.90;;;;;;4990047;28;20507;-54
2023/07/21 02:16:39;;;;;;;3.03;2.60;;;12.10;1.00;;;;;;4989896;28;20417;-55
2023/07/21 02:19:07;;;;;;;3.40;2.97;;;12.10;1.00;;;;;;4989888;28;20427;-55
2023/07/21 02:21:34;;;;;;;9.90;2.93;;;12.10;1.00;;;;;;4989889;28;20195;-55
2023/07/21 02:24:00;;;;;;;3.00;2.70;;;12.00;1.00;;;;;;4990112;28;20421;-56
2023/07/21 02:26:25;;;;;;;6.13;2.80;;;12.00;1.00;;;;;;4989872;28;20443;-56
2023/07/21 02:28:51;;;;;;;6.07;2.50;;;12.00;1.00;;;;;;4990114;28;20901;-55
2023/07/21 02:31:18;;;;;;;7.47;3.30;;;12.00;1.00;;;;;;4990017;28;20185;-54
2023/07/21 02:33:43;;;;;;;4.20;2.97;;;12.00;36.50;;;;;;4989914;28;20222;-55
2023/07/21 02:36:09;;;;;;;4.80;3.30;;;12.10;99.90;;;;;;4989682;28;20420;-55
2023/07/21 02:38:34;;;;;;;2.93;2.70;;;12.10;99.90;;;;;;4990018;28;20242;-55
2023/07/21 02:41:04;;;;;;;5.10;3.27;;;12.20;99.90;;;;;;4989753;28;20200;-55
2023/07/21 02:43:32;;;;;;;7.27;3.83;;;12.20;99.90;;;;;;4989603;28;20182;-55
2023/07/21 02:45:57;;;;;;;4.80;3.07;;;12.30;99.90;;;;;;4989964;28;20975;-55
2023/07/21 02:48:23;;;;;;;4.17;3.10;;;12.30;99.90;;;;;;4989796;28;20417;-55
2023/07/21 02:50:51;;;;;;;5.50;3.40;;;12.40;99.90;;;;;;4989735;28;20220;-56
2023/07/21 02:53:18;;;;;;;5.13;3.50;;;12.40;99.90;;;;;;4989845;28;20248;-54
2023/07/21 02:55:44;;;;;;;5.40;3.30;;;12.40;99.90;;;;;;4989264;28;20460;-55
2023/07/21 02:58:12;;;;;;;3.93;3.13;;;12.40;99.90;;;;;;4989655;28;20412;-56
2023/07/21 03:00:38;;;;;;;4.07;3.10;;;12.50;99.90;;;;;;4991631;28;20444;-56
2023/07/21 03:03:04;;;;;;;5.40;3.70;;;12.50;99.90;;;;;;4993227;28;20413;-56
2023/07/21 03:05:30;;;;;;;4.03;3.00;;;12.50;99.90;;;;;;4992727;28;21032;-55
2023/07/21 03:07:59;;;;;;;3.43;3.10;;;12.50;99.90;;;;;;4993146;28;20448;-54
2023/07/21 03:10:24;;;;;;;3.93;3.27;;;12.60;99.90;;;;;;4993219;28;20519;-52
2023/07/21 03:12:50;;;;;;;5.23;2.87;;;12.60;99.90;;;;;;4993152;28;20494;-56
2023/07/21 03:15:15;;;;;;;11.27;3.13;;;12.60;99.90;;;;;;4992643;28;20215;-54
2023/07/21 03:17:41;;;;;;;3.70;3.13;;;12.60;99.90;;;;;;4992852;28;20182;-56
2023/07/21 03:20:11;;;;;;;6.70;3.87;;;12.70;99.90;;;;;;4992514;28;20178;-55
2023/07/21 03:22:44;;;;;;;6.27;3.70;;;12.70;99.90;;;;;;4992928;28;20219;-56
2023/07/21 03:25:10;;;;;;;8.30;3.57;;;12.70;99.90;;;;;;4992816;28;20455;-55
2023/07/21 03:27:38;;;;;;;5.17;3.83;;;12.70;99.90;;;;;;4992747;28;20922;-56
2023/07/21 03:30:05;;;;;;;4.93;3.40;;;12.80;99.90;;;;;;4992421;28;20516;-56
2023/07/21 03:32:30;;;;;;;7.97;3.27;;;12.80;99.90;;;;;;4992454;28;20517;-57
2023/07/21 03:34:56;;;;;;;6.00;3.57;;;12.80;99.90;;;;;;4992659;28;20422;-54
2023/07/21 03:37:25;;;;;;;7.50;3.47;;;12.90;99.90;;;;;;4992655;28;20752;-56
2023/07/21 03:39:52;;;;;;;5.93;3.47;;;12.90;99.90;;;;;;4992970;28;20198;-56
2023/07/21 03:42:18;;;;;;;6.47;3.47;;;12.90;99.90;;;;;;4992558;28;20413;-55
2023/07/21 03:44:50;;;;;;;5.93;3.83;;;12.90;99.90;;;;;;4992291;28;20916;-55
2023/07/21 03:47:19;;;;;;;6.30;3.40;;;13.00;99.90;;;;;;4992422;28;20423;-56
2023/07/21 03:49:46;;;;;;;3.83;3.10;;;13.00;99.90;;;;;;5007269;28;21368;-57
2023/07/21 03:52:12;;;;;;;9.73;3.60;;;13.00;99.90;;;;;;4992096;28;20558;-57
2023/07/21 03:54:38;;;;;;;5.63;3.17;;;13.10;99.90;;;;;;4992016;28;20477;-56
2023/07/21 03:57:04;;;;;;;3.20;2.80;;;13.10;99.90;;;;;;4992370;28;20409;-57
2023/07/21 03:59:30;;;;;;;5.90;2.90;;;13.20;99.90;;;;;;4992317;28;20428;-58
2023/07/21 04:01:56;;;;;;;4.60;3.00;;;13.30;99.90;;;;;;4992000;28;20421;-53
2023/07/21 04:04:22;;;;;;;4.97;2.70;;;13.30;99.90;;;;;;4992448;28;20241;-56
2023/07/21 04:06:47;;;;;;;4.93;3.23;;;13.20;99.90;;;;;;4992192;28;20232;-56
2023/07/21 04:09:13;;;;;;;3.90;3.23;;;13.30;99.90;;;;;;4992142;28;20232;-56
2023/07/21 04:11:40;;;;;;;5.90;3.33;;;13.20;99.90;;;;;;4991478;28;20187;-57
2023/07/21 04:14:05;;;;;;;5.83;3.07;;;13.30;66.70;;;;;;4991730;28;20667;-55
2023/07/21 04:16:32;;;;;;;8.97;3.70;;;13.30;25.20;;;;;;4991757;28;20424;-56
2023/07/21 04:18:58;;;;;;;6.90;3.20;;;13.30;53.80;;;;;;4991962;28;20655;-56
2023/07/21 04:21:24;;;;;;;8.50;3.10;;;13.40;38.10;;;;;;4992151;28;20419;-57
2023/07/21 04:23:49;;;;;;;7.50;3.73;;;13.30;22.70;;;;;;4991880;28;20505;-57
2023/07/21 04:26:16;;;;;;;9.50;3.80;;;13.40;1.00;;;;;;4991694;28;20508;-57
2023/07/21 04:28:42;;;;;;;5.57;4.03;;;13.40;1.00;;;;;;4991905;28;20224;-56
2023/07/21 04:31:09;;;;;;;7.73;4.73;;;13.50;1.00;;;;;;4991507;28;20414;-57
2023/07/21 04:33:35;;;;;;;8.33;4.80;;;13.50;1.00;;;;;;4991315;28;20520;-55
2023/07/21 04:36:02;;;;;;;7.40;4.50;;;13.60;1.00;;;;;;4991640;28;20459;-56
2023/07/21 04:38:27;;;;;;;9.10;4.27;;;13.60;99.90;;;;;;4991682;28;20284;-55
2023/07/21 04:40:54;;;;;;;6.50;4.33;;;13.60;99.90;;;;;;4991717;28;20948;-57
2023/07/21 04:43:19;;;;;;;6.70;4.97;;;13.70;99.90;;;;;;4991402;28;20647;-57
2023/07/21 04:45:45;;;;;;;5.80;5.20;;;13.80;99.90;;;;;;4991578;28;20433;-56
2023/07/21 04:48:11;;;;;;;7.30;4.57;;;13.90;94.50;;;;;;4991543;28;20213;-55
2023/07/21 04:50:36;;;;;;;8.90;4.70;;;14.00;1.00;;;;;;4991561;28;20195;-59
2023/07/21 04:53:02;;;;;;;7.53;5.10;;;14.10;1.00;;;;;;4991352;28;20214;-55
2023/07/21 04:55:28;;;;;;;8.40;5.47;;;14.20;99.90;;;;;;4991409;28;20288;-55
2023/07/21 04:57:53;;;;;;;9.20;4.83;;;14.20;99.90;;;;;;4991472;28;20567;-56
2023/07/21 05:00:19;;;;;;;7.30;5.20;;;14.20;99.90;;;;;;4991024;28;20670;-56
2023/07/21 05:02:45;;;;;;;6.50;4.87;;;14.20;4.50;;;;;;4991340;28;20192;-57
2023/07/21 05:05:10;;;;;;;8.70;5.43;;;14.20;1.00;;;;;;4991308;28;20187;-56
2023/07/21 05:07:37;;;;;;;7.17;4.80;;;14.30;99.90;;;;;;4990858;28;20688;-55
2023/07/21 05:10:03;;;;;;;9.90;4.37;;;14.40;1.00;;;;;;4990875;28;20644;-56
2023/07/21 05:12:29;;;;;;;6.47;4.77;;;14.50;99.90;;;;;;4990829;28;20465;-56
2023/07/21 05:14:54;;;;;;;8.00;5.20;;;14.50;99.90;;;;;;4991363;28;20414;-57
2023/07/21 05:17:20;;;;;;;6.90;3.60;;;14.60;1.00;;;;;;4990759;28;20187;-57
2023/07/21 05:19:46;;;;;;;3.23;2.23;;;14.70;99.90;;;;;;4990834;28;20178;-56
2023/07/21 05:22:12;;;;;;;6.77;2.43;;;14.80;99.90;;;;;;4991027;28;20187;-57
2023/07/21 05:24:38;;;;;;;8.97;2.40;;;15.00;19.20;;;;;;4990754;28;20500;-56
2023/07/21 05:27:04;;;;;;;4.63;2.10;;;15.20;99.90;;;;;;4990747;28;20425;-58
2023/07/21 05:29:31;;;;;;;4.83;2.27;;;15.40;99.90;;;;;;4990987;28;20190;-57
2023/07/21 05:31:57;;;;;;;4.53;2.43;;;15.50;99.90;;;;;;4991073;28;20191;-57
2023/07/21 05:34:22;;;;;;;7.50;2.20;;;15.70;99.90;;;;;;4991140;28;20918;-57
2023/07/21 05:36:48;;;;;;;6.23;2.10;;;15.90;99.90;;;;;;4990744;28;20199;-55
2023/07/21 05:39:14;;;;;;;4.60;1.93;;;16.30;69.30;;;;;;4990929;28;20188;-57
2023/07/21 05:41:40;;;;;;;7.90;2.30;;;16.70;8.30;;;;;;4990808;28;20188;-56
2023/07/21 05:44:05;;;;;;;5.43;2.53;;;17.00;1.00;;;;;;4990477;28;20472;-57
2023/07/21 05:46:31;;;;;;;5.30;2.20;;;17.30;1.00;;;;;;4990626;28;20262;-56
2023/07/21 05:48:57;;;;;;;2.50;1.90;;;17.30;1.00;;;;;;4990592;28;20305;-56
2023/07/21 05:51:23;;;;;;;3.37;1.90;;;17.50;1.00;;;;;;4990999;28;20245;-56
2023/07/21 05:53:48;;;;;;;5.27;1.80;;;17.40;1.00;;;;;;4990533;28;20554;-57
2023/07/21 05:56:14;;;;;;;3.23;2.00;;;17.30;1.00;;;;;;4990088;28;20240;-57
2023/07/21 05:58:41;;;;;;;5.47;2.27;;;17.40;1.00;;;;;;4990160;28;20207;-56
2023/07/21 06:01:10;;;;;;;4.00;2.10;;;17.50;1.00;;;;;;4990449;28;20207;-56
2023/07/21 06:03:37;;;;;;;2.90;1.90;;;17.60;1.00;;;;;;4990135;28;20825;-56
2023/07/21 06:06:03;;;;;;;2.80;2.07;;;17.70;1.00;;;;;;4990391;28;20415;-57
2023/07/21 06:08:29;;;;;;;9.67;2.83;;;17.80;1.00;;;;;;4990461;28;20451;-54
2023/07/21 06:10:56;;;;;;;4.90;3.00;;;17.90;1.00;;;;;;4990578;28;20447;-53
2023/07/21 06:13:22;;;;;;;8.13;3.53;;;18.00;1.00;;;;;;4988915;28;20239;-57
2023/07/21 06:15:48;;;;;;;6.67;3.43;;;18.10;1.00;;;;;;4990015;28;20427;-54
2023/07/21 06:18:13;;;;;;;9.83;3.40;;;18.20;1.00;;;;;;4990242;28;20188;-56
2023/07/21 06:20:39;;;;;;;4.97;3.13;;;18.40;1.00;;;;;;4990290;28;20191;-57
2023/07/21 06:23:04;;;;;;;5.93;3.60;;;18.50;1.00;;;;;;4990114;28;20680;-56
2023/07/21 06:25:30;;;;;;;5.70;2.60;;;18.80;1.00;;;;;;4989944;28;20636;-57
2023/07/21 06:27:57;;;;;;;7.50;2.53;;;18.80;1.00;;;;;;4990411;28;20330;-58
2023/07/21 06:30:22;;;;;;;5.03;1.80;;;18.90;1.00;;;;;;4990101;28;20185;-57
2023/07/21 06:32:49;;;;;;;3.33;1.50;;;18.90;1.00;;;;;;4990124;28;20470;-57
2023/07/21 06:35:14;;;;;;;5.37;1.80;;;18.90;1.00;;;;;;4991302;28;20196;-57
2023/07/21 06:37:40;;;;;;;1.90;1.70;;;18.90;1.00;;;;;;4993824;28;20572;-54
2023/07/21 06:40:11;;;;;;;4.20;1.80;;;19.10;1.00;;;;;;4993332;28;20312;-54
2023/07/21 06:42:38;;;;;;;2.40;1.43;;;19.10;1.00;;;;;;4993405;28;20171;-54
2023/07/21 06:45:04;;;;;;;4.40;2.20;;;19.10;1.00;;;;;;4993350;28;20422;-54
2023/07/21 06:47:30;;;;;;;3.77;1.63;;;19.20;1.00;;;;;;4993217;28;20499;-54
2023/07/21 06:49:56;;;;;;;4.00;2.13;;;19.20;1.00;;;;;;4993615;28;20868;-54
2023/07/21 06:52:21;;;;;;;4.07;1.67;;;19.30;1.00;;;;;;4992278;28;20223;-53
2023/07/21 06:54:47;;;;;;;3.90;1.87;;;19.20;1.00;;;;;;4993096;28;20236;-53
2023/07/21 06:57:14;;;;;;;4.10;1.80;;;19.10;1.00;;;;;;4993038;28;20182;-54
2023/07/21 06:59:39;;;;;;;2.83;2.07;;;18.90;1.00;;;;;;4993540;28;20199;-53
2023/07/21 07:02:06;;;;;;;3.67;1.87;;;18.80;1.00;;;;;;4992852;28;20423;-54
2023/07/21 07:04:33;;;;;;;3.70;1.87;;;18.70;1.00;;;;;;4993158;28;20184;-54
2023/07/21 07:06:58;;;;;;;3.20;2.10;;;18.70;1.00;;;;;;4993321;28;20421;-54
2023/07/21 07:09:25;;;;;;;3.20;1.70;;;18.50;1.00;;;;;;4993459;28;20433;-53
2023/07/21 07:11:51;;;;;;;4.70;1.90;;;18.40;1.00;;;;;;4992990;28;20185;-54
2023/07/21 07:14:17;;;;;;;2.63;2.10;;;18.30;1.00;;;;;;4992985;28;20430;-53
2023/07/21 07:16:43;;;;;;;6.77;1.97;;;18.20;1.00;;;;;;4992700;28;20436;-53
2023/07/21 07:19:08;;;;;;;3.17;1.90;;;18.20;1.00;;;;;;4992906;28;20275;-53
2023/07/21 07:21:34;;;;;;;2.70;1.87;;;18.30;1.00;;;;;;4992863;28;20835;-54
2023/07/21 07:23:59;;;;;;;3.17;1.83;;;18.50;1.00;;;;;;4992882;28;20266;-53
2023/07/21 07:26:26;;;;;;;2.37;1.80;;;18.90;1.00;;;;;;4992887;28;20641;-53
2023/07/21 07:28:52;;;;;;;3.00;1.90;;;19.40;1.00;;;;;;4992578;28;20188;-54
2023/07/21 07:31:17;;;;;;;3.63;2.00;;;20.10;1.00;;;;;;4992728;28;20481;-52
2023/07/21 07:33:44;;;;;;;3.77;2.00;;;20.60;1.00;;;;;;4992690;28;20212;-52
2023/07/21 07:36:11;;;;;;;4.03;1.60;;;20.90;1.00;;;;;;4992558;28;20200;-52
2023/07/21 07:38:38;;;;;;;3.30;1.70;;;21.20;1.00;;;;;;4992727;28;20557;-52
2023/07/21 07:41:05;;;;;;;3.20;2.20;;;21.60;1.00;;;;;;4992595;28;20416;-51
2023/07/21 07:43:32;;;;;;;4.73;2.10;;;21.50;1.00;;;;;;4992590;28;20454;-51
2023/07/21 07:45:58;;;;;;;1.83;1.50;;;21.50;99.90;;;;;;4991962;28;20434;-52
2023/07/21 07:48:24;;;;;;;5.53;2.13;;;21.50;99.90;;;;;;4992075;28;20520;-52
2023/07/21 07:50:52;;;;;;;4.40;1.80;;;21.60;99.90;;;;;;4992286;28;20516;-52
2023/07/21 07:53:17;;;;;;;4.10;2.00;;;21.90;99.90;;;;;;4992291;28;20222;-51
2023/07/21 07:55:44;;;;;;;4.27;1.87;;;21.90;99.90;;;;;;4992013;28;20812;-52
2023/07/21 07:58:10;;;;;;;3.00;1.70;;;22.10;99.90;;;;;;4992450;28;20548;-52
2023/07/21 08:00:38;;;;;;;6.00;1.70;;;22.10;99.90;;;;;;4992111;28;20437;-53
2023/07/21 08:03:09;;;;;;;3.97;1.70;;;22.20;99.90;;;;;;4992290;28;20761;-51
2023/07/21 08:05:35;;;;;;;2.53;1.70;;;21.90;99.90;;;;;;4992381;28;20410;-51
2023/07/21 08:08:02;;;;;;;6.47;1.87;;;21.50;99.90;;;;;;4992198;28;20417;-51
2023/07/21 08:10:32;;;;;;;3.40;1.87;;;21.10;99.90;;;;;;4992343;28;20426;-52
2023/07/21 08:12:59;;;;;;;4.57;1.80;;;21.00;99.90;;;;;;4992267;28;20474;-52
2023/07/21 08:15:25;;;;;;;2.63;1.40;;;21.00;99.90;;;;;;4991821;28;20413;-52
2023/07/21 08:17:52;;;;;;;3.40;1.80;;;20.90;99.90;;;;;;4992216;28;20487;-52
2023/07/21 08:20:18;;;;;;;2.83;2.07;;;20.80;99.90;;;;;;4992046;28;20418;-52
2023/07/21 08:22:45;;;;;;;4.00;1.63;;;20.50;99.90;;;;;;4991994;28;20431;-51
2023/07/21 08:25:10;;;;;;;2.67;1.80;;;20.30;99.90;;;;;;4991656;28;20528;-52
2023/07/21 08:27:36;;;;;;;2.47;2.00;;;20.30;99.90;;;;;;4991803;28;20507;-52
2023/07/21 08:30:02;;;;;;;1.90;1.70;;;20.70;99.90;;;;;;4991911;28;20183;-51
2023/07/21 08:32:28;;;;;;;3.30;2.40;;;21.20;99.90;;;;;;4991845;28;20214;-52
2023/07/21 08:34:57;;;;;;;2.97;2.00;;;22.10;99.90;;;;;;4991810;28;20423;-52
2023/07/21 08:37:22;;;;;;;4.73;1.80;;;22.80;99.90;;;;;;4991557;28;20289;-52
2023/07/21 08:39:48;;;;;;;2.57;1.80;;;23.70;99.90;;;;;;4991719;28;20902;-52
2023/07/21 08:42:14;;;;;;;3.70;1.40;;;24.10;99.90;;;;;;4991684;28;20188;-52
2023/07/21 08:44:40;;;;;;;3.03;2.00;;;24.20;99.90;;;;;;4991771;28;20266;-52
2023/07/21 08:47:06;;;;;;;2.77;1.83;;;24.50;99.90;;;;;;4991248;28;20448;-53
2023/07/21 08:49:32;;;;;;;5.60;2.37;;;24.80;99.90;;;;;;4991340;28;20195;-50
2023/07/21 08:51:58;;;;;;;3.60;1.60;;;25.00;99.90;;;;;;4990439;28;20470;-51
2023/07/21 08:54:24;;;;;;;2.60;1.70;;;25.20;99.90;;;;;;4990411;28;20476;-49
2023/07/21 08:56:50;;;;;;;3.20;2.03;;;25.60;99.90;;;;;;4990873;28;20400;-49
2023/07/21 08:59:18;;;;;;;4.73;2.20;;;25.80;99.90;;;;;;4991417;28;20189;-50
2023/07/21 09:01:43;;;;;;;2.13;1.93;;;26.10;99.90;;;;;;4991972;28;20416;-50
2023/07/21 09:04:20;;;;;;;4.13;1.90;;;26.00;99.90;;;;;;4992758;28;20412;-50
2023/07/21 09:06:57;;;;;;;3.90;1.83;;;25.40;99.90;;;;;;4992442;28;20188;-50
2023/07/21 09:09:25;;;;;;;8.00;1.50;;;24.80;99.90;;;;;;4992711;28;20438;-50
2023/07/21 09:12:03;;;;;;;2.37;1.50;;;24.50;99.90;;;;;;4992670;28;20432;-50
2023/07/21 09:14:39;;;;;;;4.30;1.70;;;24.70;99.90;;;;;;4992294;28;20919;-50
2023/07/21 09:17:06;;;;;;;4.37;1.80;;;25.00;99.90;;;;;;4991970;28;20776;-50
2023/07/21 09:19:37;;;;;;;1.87;1.43;;;24.80;99.90;;;;;;4992115;28;20416;-50
2023/07/21 09:22:02;;;;;;;3.10;1.30;;;24.60;99.90;;;;;;4991762;28;20489;-49
2023/07/21 09:24:28;;;;;;;2.37;1.67;;;24.00;99.90;;;;;;4991979;28;20920;-50
2023/07/21 09:27:26;;;;;;;12.60;2.70;;;23.80;99.90;;;;;;4991481;28;20173;-50
2023/07/21 09:30:03;;;;;;;3.33;1.57;;;23.20;99.90;;;;;;5024435;28;20193;-50
2023/07/21 09:32:38;;;;;;;3.07;1.80;;;23.30;99.90;;;;;;4991078;28;20472;-49
2023/07/21 09:35:05;;;;;;;2.47;1.53;;;24.10;99.90;;;;;;4990690;28;20502;-49
2023/07/21 09:37:34;;;;;;;2.30;1.50;;;24.80;99.90;;;;;;4990902;28;20443;-49
2023/07/21 09:40:05;;;;;;;3.13;1.80;;;25.50;99.90;;;;;;4990984;28;20474;-51
2023/07/21 09:42:30;;;;;;;3.53;1.80;;;25.80;99.90;;;;;;4990739;28;20408;-51
2023/07/21 09:44:57;;;;;;;2.80;1.80;;;25.90;99.90;;;;;;4990382;28;20980;-50
2023/07/21 09:47:23;;;;;;;3.50;1.70;;;25.90;99.90;;;;;;4990697;28;20523;-50
2023/07/21 09:49:53;;;;;;;3.60;1.40;;;26.10;99.90;;;;;;4991945;28;20990;-50
2023/07/21 09:52:20;;;;;;;4.17;1.70;;;25.80;99.90;;;;;;4991943;28;20513;-50
2023/07/21 09:54:48;;;;;;;3.07;1.83;;;25.60;99.90;;;;;;4991365;28;20472;-50
2023/07/21 09:57:21;;;;;;;2.00;1.70;;;25.70;99.90;;;;;;4991193;28;20412;-50
2023/07/21 09:59:53;;;;;;;5.20;1.60;;;26.10;99.90;;;;;;4989535;28;20481;-51
2023/07/21 10:02:19;;;;;;;3.30;1.80;;;26.70;99.90;;;;;;4990041;28;20473;-51
2023/07/21 10:04:45;;;;;;;1.37;1.27;;;27.00;99.90;;;;;;4990178;28;20408;-51
2023/07/21 10:07:12;;;;;;;2.20;1.50;;;27.40;99.90;;;;;;4989851;28;20427;-51
2023/07/21 10:09:39;;;;;;;3.60;1.53;;;27.50;99.90;;;;;;4988730;28;20424;-47
2023/07/21 10:12:15;;;;;;;1.90;1.70;;;27.50;99.90;;;;;;4989587;28;20408;-50
2023/07/21 10:14:41;;;;;;;2.33;1.70;;;27.80;99.90;;;;;;4989572;28;20462;-51
2023/07/21 10:17:08;;;;;;;3.83;1.73;;;27.40;99.90;;;;;;4991344;28;20403;-51
2023/07/21 10:19:45;;;;;;;3.27;1.43;;;26.80;99.90;;;;;;4990963;28;20461;-51
2023/07/21 10:22:21;;;;;;;1.73;1.50;;;26.80;99.90;;;;;;4991384;28;20438;-52
2023/07/21 10:24:51;;;;;;;4.53;2.90;;;26.70;99.90;;;;;;4991707;28;20412;-51
2023/07/21 10:27:24;;;;;;;2.37;1.77;;;25.90;99.90;;;;;;4991429;28;20469;-51
2023/07/21 10:30:11;;;;;;;3.53;1.70;;;26.20;99.90;;;;;;4991172;28;20914;-51
2023/07/21 10:32:41;;;;;;;2.50;1.60;;;26.90;99.90;;;;;;4991114;28;20818;-51
2023/07/21 10:35:30;;;;;;;2.70;1.50;;;27.20;99.90;;;;;;4991358;28;20420;-48
2023/07/21 10:38:14;;;;;;;1.77;1.40;;;26.80;99.90;;;;;;4991396;28;20741;-51
2023/07/21 10:40:46;;;;;;;3.30;1.67;;;25.60;99.90;;;;;;4991387;28;20420;-50
2023/07/21 10:43:13;;;;;;;2.33;1.73;;;25.30;99.90;;;;;;4991089;28;20523;-51
2023/07/21 10:45:39;;;;;;;2.37;1.33;;;26.20;99.90;;;;;;4990090;28;20503;-51
2023/07/21 10:48:11;;;;;;;2.40;1.10;;;27.30;99.90;;;;;;4991363;28;20230;-51
2023/07/21 10:50:56;;;;;;;2.40;1.60;;;28.20;99.90;;;;;;4990750;28;20424;-52
2023/07/21 10:53:23;;;;;;;5.13;1.60;;;28.20;99.90;;;;;;4991158;28;20467;-49
2023/07/21 10:55:51;;;;;;;2.27;1.47;;;27.20;99.90;;;;;;4990734;28;20494;-49
2023/07/21 10:58:17;;;;;;;1.80;1.23;;;26.20;99.90;;;;;;4990953;28;20420;-51
2023/07/21 11:00:45;;;;;;;2.50;1.53;;;25.70;99.90;;;;;;4989994;28;20784;-51
2023/07/21 11:03:11;;;;;;;2.07;1.20;;;26.20;99.90;;;;;;4989239;28;20208;-51
2023/07/21 11:05:36;;;;;;;1.13;1.03;;;27.50;99.90;;;;;;4989116;28;21020;-50
2023/07/21 11:08:04;;;;;;;2.90;1.67;;;28.20;99.90;;;;;;4989740;28;20228;-51
2023/07/21 11:10:35;;;;;;;1.60;1.50;;;28.30;99.90;;;;;;4989409;28;20882;-51
2023/07/21 11:13:01;;;;;;;3.77;1.30;;;28.00;99.90;;;;;;4989192;28;20525;-51
2023/07/21 11:15:27;;;;;;;2.50;1.50;;;27.10;99.90;;;;;;4988941;28;20919;-51
2023/07/21 11:18:00;;;;;;;2.40;1.20;;;26.10;99.90;;;;;;4989563;28;20493;-51
2023/07/21 11:20:26;;;;;;;1.57;1.47;;;25.30;99.90;;;;;;4989601;28;20189;-50
2023/07/21 11:22:52;;;;;;;2.33;1.30;;;24.50;99.90;;;;;;4992054;28;20434;-50
2023/07/21 11:25:18;;;;;;;2.13;1.40;;;24.10;99.90;;;;;;4992641;28;20185;-50
2023/07/21 11:27:45;;;;;;;1.87;1.23;;;24.10;99.90;;;;;;4992735;28;20204;-50
2023/07/21 11:30:15;;;;;;;1.67;1.37;;;24.40;99.90;;;;;;4992370;28;20272;-50
2023/07/21 11:32:41;;;;;;;2.80;1.50;;;25.40;99.90;;;;;;4992137;28;20482;-50
2023/07/21 11:35:07;;;;;;;1.60;1.50;;;26.40;99.90;;;;;;4992209;28;20427;-50
2023/07/21 11:37:44;;;;;;;1.90;1.50;;;26.20;99.90;;;;;;4991907;28;20208;-50
2023/07/21 11:40:14;;;;;;;1.70;1.23;;;25.30;99.90;;;;;;4991552;28;20443;-50
2023/07/21 11:42:48;;;;;;;4.37;1.50;;;24.70;99.90;;;;;;4991408;28;20447;-50
2023/07/21 11:45:35;;;;;;;2.40;1.50;;;24.10;99.90;;;;;;4991740;28;20770;-50
2023/07/21 11:48:10;;;;;;;1.80;1.30;;;24.30;99.90;;;;;;4991017;28;20819;-50
2023/07/21 11:50:36;;;;;;;2.13;1.20;;;25.40;99.90;;;;;;4991348;28;20404;-50
2023/07/21 11:53:04;;;;;;;2.33;1.30;;;26.60;99.90;;;;;;4990547;28;21036;-50
2023/07/21 11:55:30;;;;;;;1.83;1.27;;;27.90;99.90;;;;;;4991211;28;20294;-48
2023/07/21 11:57:55;;;;;;;1.30;1.20;;;28.70;99.90;;;;;;4990904;28;21174;-50
2023/07/21 12:00:24;;;;;;;1.97;1.50;;;29.40;99.90;;;;;;4990883;28;20648;-50
2023/07/21 12:02:51;;;;;;;2.10;1.33;;;28.60;99.90;;;;;;4990501;28;20694;-50
2023/07/21 12:05:18;;;;;;;2.47;1.30;;;28.10;99.90;;;;;;4990940;28;20443;-50
2023/07/21 12:07:43;;;;;;;3.00;1.23;;;27.30;99.90;;;;;;4990576;28;20431;-50
2023/07/21 12:10:10;;;;;;;2.10;1.63;;;26.90;99.90;;;;;;4990828;28;20503;-50
2023/07/21 12:12:37;;;;;;;1.63;1.50;;;26.90;99.90;;;;;;4990520;28;20254;-50
2023/07/21 12:15:06;;;;;;;1.60;1.43;;;26.90;99.90;;;;;;4990448;28;20469;-50
2023/07/21 12:17:32;;;;;;;3.20;1.40;;;27.40;99.90;;;;;;4990681;28;20415;-50
2023/07/21 12:19:57;;;;;;;2.70;1.30;;;27.70;99.90;;;;;;4990584;28;20511;-50
2023/07/21 12:22:25;;;;;;;2.37;1.17;;;27.50;99.90;;;;;;4990338;28;20189;-50
2023/07/21 12:24:50;;;;;;;1.93;1.30;;;27.20;99.90;;;;;;4990566;28;20211;-50
2023/07/21 12:27:16;;;;;;;1.40;1.20;;;27.00;99.90;;;;;;4991522;28;20904;-50
2023/07/21 12:29:42;;;;;;;2.60;1.30;;;26.60;99.90;;;;;;4990503;28;20619;-50
2023/07/21 12:32:07;;;;;;;1.27;1.17;;;26.60;99.90;;;;;;4989636;28;20221;-48
2023/07/21 12:34:33;;;;;;;2.33;1.30;;;26.60;99.90;;;;;;4990524;28;20181;-50
2023/07/21 12:36:58;;;;;;;1.17;1.07;;;26.20;99.90;;;;;;4991510;28;20698;-50
2023/07/21 12:39:24;;;;;;;3.40;1.57;;;25.60;99.90;;;;;;4991335;28;20185;-50
2023/07/21 12:41:50;;;;;;;2.60;1.47;;;25.00;99.90;;;;;;4989185;28;20256;-48
2023/07/21 12:44:16;;;;;;;2.00;1.30;;;24.40;99.90;;;;;;4989486;28;20238;-49
2023/07/21 12:46:41;;;;;;;2.00;1.43;;;23.70;99.90;;;;;;4989804;28;20420;-48
2023/07/21 12:49:07;;;;;;;2.70;1.57;;;23.50;99.90;;;;;;4990171;28;20196;-48
2023/07/21 12:51:33;;;;;;;1.63;1.43;;;23.20;99.90;;;;;;4989787;28;20180;-48